NORTHEAST SUFFOLK  -  Air Quality Alert Air Quality Alert        NORTHERN NASSAU  -  Air Quality Alert Air Quality Alert        NORTHERN QUEENS  -  Air Quality Alert Air Quality Alert        NORTHWEST SUFFOLK  -  Air Quality Alert Air Quality Alert        SOUTHEAST SUFFOLK  -  Air Quality Alert Air Quality Alert        SOUTHERN NASSAU  -  Air Quality Alert Air Quality Alert        SOUTHERN QUEENS  -  Air Quality Alert Air Quality Alert        SOUTHWEST SUFFOLK  -  Air Quality Alert Air Quality Alert      

Active alerts

Northern Queens
  Details for Northern Queens Air Quality Alert
Southern Queens
  Details for Southern Queens Air Quality Alert
Northern Nassau
  Details for Northern Nassau Air Quality Alert
Southern Nassau
  Details for Southern Nassau Air Quality Alert
Northwest Suffolk
  Details for Northwest Suffolk Air Quality Alert
Southwest Suffolk
  Details for Southwest Suffolk Air Quality Alert
Northeast Suffolk
  Details for Northeast Suffolk Air Quality Alert
Southeast Suffolk
  Details for Southeast Suffolk Air Quality Alert


WXM80 ListenWXM80 Stop

You find our weather info also at:

UK Metoffice

WeatherCloud

Weather Underground

Northeastern Weather Network

AWEKAS

Citizen Weather Observer Program (CWOP)

HAMweather, WeatherForYou, PWS Weather


Weather Underground History page Text

Daily Summary for February 15, 2017 Units:  English    Metric   Both
« Previous Day
Next Day »
Daily Weekly Monthly Yearly Custom
  High: Low: Average:
Temperature: 43.3 °F 32.8 °F 37.7 °F
Dew Point: 39.2 °F 28.7 °F 34.8 °F
Humidity: 96 % 73 % 89 %
Wind Speed: 10.8 mph 0.0 mph 2.5 mph
Wind Gust: 18.4 mph - -
Wind:- - SW
Pressure: 29.70 in 29.25 in -
Precipitation: 0.00 in    
Historical Graphs
 
 
Tabular Data for February 15, 2017
Time Temperature Dew Point Pressure Wind Wind Speed Wind Gust Humidity Rainfall Rate (Hourly)
00:00 35.5 °F 32.9 °F 29.70 in South 0.9 mph 3.0 mph 90 % 0.00 in
00:05 35.5 °F 32.9 °F 29.70 in SSE 1.5 mph 3.5 mph 90 % 0.00 in
00:10 35.5 °F 32.6 °F 29.70 in South 2.7 mph 4.6 mph 89 % 0.00 in
00:15 35.4 °F 32.5 °F 29.70 in SSW 3.4 mph 5.8 mph 89 % 0.00 in
00:20 35.5 °F 32.6 °F 29.70 in SSW 4.3 mph 6.9 mph 89 % 0.00 in
00:25 35.5 °F 32.6 °F 29.69 in SSW 3.4 mph 4.6 mph 89 % 0.00 in
00:30 35.6 °F 32.7 °F 29.69 in South 2.4 mph 4.6 mph 89 % 0.00 in
00:35 35.6 °F 32.7 °F 29.68 in South 4.4 mph 6.9 mph 89 % 0.00 in
00:40 35.7 °F 33.1 °F 29.68 in SW 2.6 mph 4.6 mph 90 % 0.00 in
00:45 35.8 °F 33.2 °F 29.68 in SSW 4.4 mph 6.9 mph 90 % 0.00 in
00:50 35.9 °F 33.3 °F 29.67 in South 4.6 mph 6.9 mph 90 % 0.00 in
00:55 36.0 °F 33.4 °F 29.67 in South 2.6 mph 4.6 mph 90 % 0.00 in
01:00 36.0 °F 33.4 °F 29.67 in SSW 1.7 mph 4.0 mph 90 % 0.00 in
01:05 36.1 °F 33.7 °F 29.67 in South 2.4 mph 4.6 mph 91 % 0.00 in
01:10 36.1 °F 33.7 °F 29.67 in SSW 2.1 mph 4.6 mph 91 % 0.00 in
01:15 36.1 °F 33.7 °F 29.66 in South 1.8 mph 7.0 mph 91 % 0.00 in
01:20 36.1 °F 33.7 °F 29.66 in SSW 1.6 mph 4.6 mph 91 % 0.00 in
01:25 36.2 °F 34.1 °F 29.66 in South 6.7 mph 10.4 mph 92 % 0.00 in
01:31 36.3 °F 34.2 °F 29.66 in SSW 3.3 mph 5.8 mph 92 % 0.00 in
01:36 36.4 °F 34.3 °F 29.66 in SSW 4.4 mph 6.9 mph 92 % 0.00 in
01:41 36.5 °F 34.4 °F 29.66 in SSW 5.2 mph 10.4 mph 92 % 0.00 in
01:46 36.6 °F 34.8 °F 29.66 in SSW 4.0 mph 6.0 mph 93 % 0.00 in
01:51 36.6 °F 34.8 °F 29.66 in South 2.6 mph 6.9 mph 93 % 0.00 in
01:56 36.7 °F 34.9 °F 29.66 in SW 2.8 mph 7.0 mph 93 % 0.00 in
02:01 36.7 °F 34.9 °F 29.66 in SW 3.0 mph 6.0 mph 93 % 0.00 in
02:06 36.8 °F 35.0 °F 29.66 in SW 1.5 mph 3.5 mph 93 % 0.00 in
02:11 36.8 °F 35.0 °F 29.65 in WSW 3.9 mph 6.9 mph 93 % 0.00 in
02:16 36.8 °F 35.0 °F 29.65 in SW 3.4 mph 4.6 mph 93 % 0.00 in
02:21 36.8 °F 35.0 °F 29.65 in SSW 2.6 mph 5.8 mph 93 % 0.00 in
02:26 36.8 °F 35.0 °F 29.65 in SW 2.8 mph 4.6 mph 93 % 0.00 in
02:31 36.8 °F 35.0 °F 29.64 in SW 2.3 mph 3.5 mph 93 % 0.00 in
02:36 36.7 °F 34.9 °F 29.64 in WSW 2.9 mph 5.8 mph 93 % 0.00 in
02:42 36.7 °F 34.9 °F 29.64 in SW 4.4 mph 8.1 mph 93 % 0.00 in
02:47 36.8 °F 35.0 °F 29.64 in SW 2.6 mph 3.5 mph 93 % 0.00 in
02:52 36.7 °F 34.9 °F 29.63 in SW 1.4 mph 4.0 mph 93 % 0.00 in
02:57 36.7 °F 34.9 °F 29.63 in SW 2.2 mph 3.5 mph 93 % 0.00 in
03:02 36.7 °F 34.9 °F 29.62 in West 2.6 mph 6.0 mph 93 % 0.00 in
03:12 36.7 °F 34.9 °F 29.62 in WSW 3.9 mph 6.0 mph 93 % 0.00 in
03:17 36.6 °F 34.5 °F 29.61 in SSW 3.3 mph 7.0 mph 92 % 0.00 in
03:22 36.5 °F 34.4 °F 29.61 in SSW 3.3 mph 4.6 mph 92 % 0.00 in
03:32 36.3 °F 34.2 °F 29.61 in SSW 2.1 mph 5.0 mph 92 % 0.00 in
03:37 36.2 °F 34.4 °F 29.61 in SW 2.8 mph 5.8 mph 93 % 0.00 in
03:42 36.2 °F 34.4 °F 29.60 in SSW 4.9 mph 6.9 mph 93 % 0.00 in
03:48 36.2 °F 34.4 °F 29.60 in SW 4.2 mph 5.0 mph 93 % 0.00 in
03:53 36.2 °F 34.4 °F 29.60 in SW 2.7 mph 6.9 mph 93 % 0.00 in
03:58 36.3 °F 34.5 °F 29.59 in SW 4.2 mph 7.0 mph 93 % 0.00 in
04:03 36.4 °F 34.6 °F 29.59 in SW 2.5 mph 3.5 mph 93 % 0.00 in
04:08 36.3 °F 34.5 °F 29.58 in SW 2.9 mph 6.0 mph 93 % 0.00 in
04:13 36.3 °F 34.5 °F 29.58 in SSW 3.1 mph 3.5 mph 93 % 0.00 in
04:18 36.3 °F 34.5 °F 29.58 in SSW 2.2 mph 4.6 mph 93 % 0.00 in
04:23 36.2 °F 34.4 °F 29.57 in SW 2.3 mph 2.3 mph 93 % 0.00 in
04:28 36.2 °F 34.4 °F 29.57 in SW 1.4 mph 3.5 mph 93 % 0.00 in
04:33 36.1 °F 34.3 °F 29.57 in SW 1.0 mph 1.2 mph 93 % 0.00 in
04:38 36.1 °F 34.3 °F 29.57 in SW 0.1 mph 1.2 mph 93 % 0.00 in
04:43 36.0 °F 33.9 °F 29.57 in Calm     92 % 0.00 in
04:48 36.0 °F 33.9 °F 29.56 in SW 0.1 mph 1.2 mph 92 % 0.00 in
04:53 35.9 °F 33.8 °F 29.56 in SW 0.3 mph 1.2 mph 92 % 0.00 in
04:58 35.6 °F 33.5 °F 29.57 in SSW 2.3 mph 4.6 mph 92 % 0.00 in
05:03 35.4 °F 33.0 °F 29.57 in SSW 2.0 mph 5.0 mph 91 % 0.00 in
05:08 35.3 °F 33.2 °F 29.56 in South 2.5 mph 4.0 mph 92 % 0.00 in
05:13 35.2 °F 33.1 °F 29.56 in SSW 2.0 mph 5.0 mph 92 % 0.00 in
05:18 35.1 °F 33.0 °F 29.56 in SSW 2.0 mph 5.0 mph 92 % 0.00 in
05:23 35.1 °F 33.0 °F 29.56 in SSW 2.0 mph 5.0 mph 92 % 0.00 in
05:28 35.2 °F 33.1 °F 29.56 in SSW 2.0 mph 4.0 mph 92 % 0.00 in
05:33 35.2 °F 33.4 °F 29.56 in SSW 2.0 mph 4.0 mph 93 % 0.00 in
05:38 35.2 °F 33.4 °F 29.56 in SSW 1.0 mph 3.0 mph 93 % 0.00 in
05:43 35.2 °F 33.1 °F 29.56 in SSW 1.0 mph 4.0 mph 92 % 0.00 in
05:48 35.2 °F 33.1 °F 29.56 in Calm   2.0 mph 92 % 0.00 in
05:53 35.2 °F 33.1 °F 29.56 in Calm   3.0 mph 92 % 0.00 in
06:03 35.1 °F 33.0 °F 29.55 in Calm   3.0 mph 92 % 0.00 in
06:08 35.1 °F 33.0 °F 29.56 in Calm     92 % 0.00 in
06:13 35.1 °F 33.0 °F 29.55 in Calm   1.0 mph 92 % 0.00 in
06:18 35.0 °F 32.9 °F 29.55 in Calm     92 % 0.00 in
06:23 35.0 °F 32.9 °F 29.55 in Calm     92 % 0.00 in
06:28 34.8 °F 32.7 °F 29.55 in Calm     92 % 0.00 in
06:33 34.7 °F 32.3 °F 29.55 in Calm     91 % 0.00 in
06:38 34.5 °F 32.1 °F 29.55 in Calm   1.0 mph 91 % 0.00 in
06:43 34.3 °F 31.9 °F 29.55 in Calm     91 % 0.00 in
06:44 34.3 °F 31.9 °F 29.55 in Calm     91 % 0.00 in
06:49 34.0 °F 31.4 °F 29.54 in Calm     90 % 0.00 in
06:54 33.7 °F 31.1 °F 29.54 in Calm     90 % 0.00 in
06:59 33.5 °F 30.9 °F 29.54 in Calm     90 % 0.00 in
07:04 33.3 °F 30.7 °F 29.54 in Calm     90 % 0.00 in
07:09 33.0 °F 30.4 °F 29.53 in Calm     90 % 0.00 in
07:14 32.9 °F 30.6 °F 29.53 in Calm     91 % 0.00 in
07:19 32.9 °F 30.6 °F 29.53 in WSW 0.1 mph 1.2 mph 91 % 0.00 in
07:24 32.8 °F 30.7 °F 29.52 in Calm     92 % 0.00 in
07:29 32.8 °F 30.7 °F 29.53 in Calm     92 % 0.00 in
07:34 32.8 °F 30.7 °F 29.52 in Calm     92 % 0.00 in
07:39 32.8 °F 31.0 °F 29.52 in Calm     93 % 0.00 in
07:44 32.8 °F 31.0 °F 29.51 in Calm     93 % 0.00 in
07:49 32.8 °F 31.0 °F 29.51 in Calm     93 % 0.00 in
07:54 32.8 °F 31.0 °F 29.51 in Calm     93 % 0.00 in
08:00 32.9 °F 31.1 °F 29.51 in Calm     93 % 0.00 in
08:05 32.9 °F 31.1 °F 29.51 in Calm     93 % 0.00 in
08:10 33.1 °F 31.3 °F 29.50 in Calm     93 % 0.00 in
08:15 33.2 °F 31.4 °F 29.50 in Calm     93 % 0.00 in
08:20 33.5 °F 32.0 °F 29.50 in Calm     94 % 0.00 in
08:25 33.7 °F 32.2 °F 29.50 in Calm     94 % 0.00 in
08:30 34.0 °F 32.5 °F 29.49 in Calm     94 % 0.00 in
08:36 34.3 °F 32.8 °F 29.48 in Calm     94 % 0.00 in
08:41 34.6 °F 33.1 °F 29.48 in Calm     94 % 0.00 in
08:46 34.9 °F 33.6 °F 29.47 in Calm     95 % 0.00 in
08:51 35.3 °F 34.0 °F 29.47 in Calm     95 % 0.00 in
08:56 35.6 °F 34.3 °F 29.47 in Calm     95 % 0.00 in
09:01 35.9 °F 34.6 °F 29.47 in Calm     95 % 0.00 in
09:06 36.3 °F 35.0 °F 29.47 in Calm     95 % 0.00 in
09:11 36.7 °F 35.4 °F 29.47 in Calm     95 % 0.00 in
09:16 37.2 °F 36.2 °F 29.46 in Calm     96 % 0.00 in
09:21 37.6 °F 36.3 °F 29.47 in Calm     95 % 0.00 in
09:26 37.9 °F 36.6 °F 29.47 in Calm     95 % 0.00 in
09:31 38.3 °F 37.0 °F 29.47 in Calm     95 % 0.00 in
09:36 38.6 °F 37.3 °F 29.47 in Calm     95 % 0.00 in
09:41 38.8 °F 37.5 °F 29.46 in Calm     95 % 0.00 in
09:46 39.1 °F 37.8 °F 29.46 in Calm     95 % 0.00 in
09:52 39.4 °F 38.1 °F 29.45 in Calm     95 % 0.00 in
09:57 39.7 °F 38.4 °F 29.44 in Calm     95 % 0.00 in
10:02 40.0 °F 38.4 °F 29.44 in WSW 0.4 mph 1.2 mph 94 % 0.00 in
10:07 40.2 °F 38.3 °F 29.45 in NW 2.4 mph 3.5 mph 93 % 0.00 in
10:12 40.4 °F 38.3 °F 29.44 in NNW 3.2 mph 4.0 mph 92 % 0.00 in
10:17 40.6 °F 38.5 °F 29.44 in NNE 2.3 mph 3.5 mph 92 % 0.00 in
10:22 40.7 °F 38.3 °F 29.44 in NE 1.5 mph 3.5 mph 91 % 0.00 in
10:27 40.7 °F 38.3 °F 29.43 in ENE 3.2 mph 4.6 mph 91 % 0.00 in
10:32 40.6 °F 38.2 °F 29.43 in North 4.8 mph 6.9 mph 91 % 0.00 in
10:37 40.6 °F 37.9 °F 29.43 in NNE 3.6 mph 4.6 mph 90 % 0.00 in
10:42 40.7 °F 38.0 °F 29.43 in NNE 4.6 mph 6.0 mph 90 % 0.00 in
10:47 40.7 °F 38.0 °F 29.43 in NNE 1.8 mph 3.5 mph 90 % 0.00 in
10:52 40.7 °F 38.0 °F 29.43 in NNE 3.0 mph 4.6 mph 90 % 0.00 in
10:57 40.8 °F 38.1 °F 29.42 in NNE 1.9 mph 4.0 mph 90 % 0.00 in
11:02 40.8 °F 37.8 °F 29.42 in NNE 3.3 mph 5.0 mph 89 % 0.00 in
11:07 40.7 °F 37.7 °F 29.42 in NNE 0.8 mph 2.0 mph 89 % 0.00 in
11:12 40.7 °F 38.0 °F 29.42 in Calm   3.5 mph 90 % 0.00 in
11:17 40.9 °F 38.2 °F 29.41 in NNW 2.2 mph 3.5 mph 90 % 0.00 in
11:22 40.9 °F 37.9 °F 29.41 in NNW 0.4 mph 2.3 mph 89 % 0.00 in
11:27 41.0 °F 38.0 °F 29.41 in NNW 0.9 mph 3.5 mph 89 % 0.00 in
11:32 41.1 °F 38.1 °F 29.41 in NNW 0.8 mph 2.3 mph 89 % 0.00 in
11:37 41.2 °F 38.2 °F 29.40 in Calm   1.2 mph 89 % 0.00 in
11:42 41.2 °F 38.2 °F 29.39 in NNW 0.2 mph 1.2 mph 89 % 0.00 in
11:48 41.1 °F 38.1 °F 29.39 in Calm   1.0 mph 89 % 0.00 in
11:53 41.0 °F 38.0 °F 29.39 in Calm     89 % 0.00 in
11:58 41.1 °F 38.1 °F 29.39 in Calm     89 % 0.00 in
12:03 41.2 °F 38.5 °F 29.39 in NNW 0.1 mph 1.2 mph 90 % 0.00 in
12:08 41.4 °F 38.7 °F 29.38 in NNW 0.3 mph 1.2 mph 90 % 0.00 in
12:13 41.5 °F 38.5 °F 29.38 in NNW 1.2 mph 3.5 mph 89 % 0.00 in
12:18 41.6 °F 38.6 °F 29.38 in NNW 1.1 mph 2.3 mph 89 % 0.00 in
12:23 41.7 °F 38.7 °F 29.38 in NNW 1.5 mph 3.5 mph 89 % 0.00 in
12:28 41.8 °F 38.5 °F 29.37 in NNW 0.7 mph 2.3 mph 88 % 0.00 in
12:33 41.9 °F 38.6 °F 29.37 in NNW 1.0 mph 1.2 mph 88 % 0.00 in
12:38 42.0 °F 38.4 °F 29.36 in NNW 0.5 mph 2.3 mph 87 % 0.00 in
12:43 42.1 °F 38.5 °F 29.36 in Calm   1.2 mph 87 % 0.00 in
12:53 42.2 °F 38.6 °F 29.35 in NNW 0.3 mph 2.3 mph 87 % 0.00 in
12:58 42.5 °F 38.9 °F 29.34 in NNW 1.7 mph 2.0 mph 87 % 0.00 in
13:03 42.4 °F 38.5 °F 29.34 in NNW 0.9 mph 3.5 mph 86 % 0.00 in
13:08 42.3 °F 38.7 °F 29.34 in North 1.3 mph 2.3 mph 87 % 0.00 in
13:13 42.2 °F 38.6 °F 29.33 in North 2.0 mph 3.0 mph 87 % 0.00 in
13:18 42.1 °F 38.5 °F 29.33 in Calm   3.0 mph 87 % 0.00 in
13:23 42.4 °F 38.8 °F 29.33 in NNE 3.6 mph 4.6 mph 87 % 0.00 in
13:28 42.6 °F 39.0 °F 29.33 in NNE 2.0 mph 5.0 mph 87 % 0.00 in
13:33 42.9 °F 39.0 °F 29.33 in NNE 1.0 mph 3.0 mph 86 % 0.00 in
13:38 43.2 °F 39.2 °F 29.32 in NNE 1.0 mph 2.0 mph 86 % 0.00 in
13:43 43.1 °F 38.9 °F 29.32 in NNE 1.0 mph 3.0 mph 85 % 0.00 in
13:48 43.3 °F 39.0 °F 29.32 in NE 2.0 mph 3.0 mph 85 % 0.00 in
13:53 43.0 °F 38.8 °F 29.32 in NE 1.0 mph 3.0 mph 85 % 0.00 in
13:58 42.7 °F 38.5 °F 29.31 in NE 1.6 mph 3.5 mph 85 % 0.00 in
14:03 42.5 °F 38.3 °F 29.31 in NE 1.5 mph 3.5 mph 85 % 0.00 in
14:08 42.2 °F 38.3 °F 29.30 in NE 1.2 mph 3.5 mph 86 % 0.00 in
14:13 42.0 °F 38.1 °F 29.30 in NE 0.3 mph 2.3 mph 86 % 0.00 in
14:18 41.8 °F 37.9 °F 29.30 in NE 2.1 mph 3.5 mph 86 % 0.00 in
14:24 41.6 °F 38.0 °F 29.30 in NE 1.9 mph 2.3 mph 87 % 0.00 in
14:29 41.4 °F 37.8 °F 29.30 in NE 1.6 mph 2.3 mph 87 % 0.00 in
14:34 41.3 °F 38.0 °F 29.30 in NE 1.9 mph 3.5 mph 88 % 0.00 in
14:39 41.2 °F 37.9 °F 29.29 in NE 1.4 mph 3.5 mph 88 % 0.00 in
14:44 40.9 °F 37.6 °F 29.29 in NE 0.7 mph 3.5 mph 88 % 0.00 in
14:49 40.8 °F 37.8 °F 29.30 in NE 1.1 mph 2.3 mph 89 % 0.00 in
14:54 40.8 °F 37.8 °F 29.30 in NE 1.5 mph 2.3 mph 89 % 0.00 in
14:59 40.8 °F 37.8 °F 29.29 in NE 0.1 mph 2.3 mph 89 % 0.00 in
15:09 40.8 °F 37.8 °F 29.29 in NE 2.1 mph 3.0 mph 89 % 0.00 in
15:14 40.7 °F 37.7 °F 29.29 in NE 0.3 mph 1.2 mph 89 % 0.00 in
15:19 40.7 °F 37.7 °F 29.29 in NE 0.2 mph 2.3 mph 89 % 0.00 in
15:24 40.7 °F 38.0 °F 29.28 in NE 0.8 mph 3.5 mph 90 % 0.00 in
15:29 40.6 °F 37.9 °F 29.28 in NE 0.7 mph 1.2 mph 90 % 0.00 in
15:34 40.5 °F 37.8 °F 29.28 in NE 0.4 mph 1.2 mph 90 % 0.00 in
15:39 40.5 °F 37.8 °F 29.28 in NE 0.5 mph 1.2 mph 90 % 0.00 in
15:44 40.3 °F 37.6 °F 29.27 in NE 0.5 mph 2.3 mph 90 % 0.00 in
15:49 40.2 °F 37.5 °F 29.27 in NE 0.4 mph 1.2 mph 90 % 0.00 in
15:54 40.1 °F 37.4 °F 29.27 in Calm   1.2 mph 90 % 0.00 in
15:59 40.0 °F 37.6 °F 29.26 in Calm   1.0 mph 91 % 0.00 in
16:04 39.9 °F 37.2 °F 29.26 in Calm     90 % 0.00 in
16:10 39.8 °F 37.1 °F 29.26 in NE 0.1 mph 1.2 mph 90 % 0.00 in
16:15 39.7 °F 37.3 °F 29.26 in Calm     91 % 0.00 in
16:20 39.7 °F 37.3 °F 29.26 in Calm     91 % 0.00 in
16:25 39.7 °F 37.3 °F 29.26 in Calm     91 % 0.00 in
16:30 39.7 °F 37.3 °F 29.25 in Calm     91 % 0.00 in
16:35 39.7 °F 37.3 °F 29.25 in Calm     91 % 0.00 in
16:40 39.7 °F 37.3 °F 29.25 in Calm     91 % 0.00 in
16:45 39.7 °F 37.3 °F 29.25 in Calm     91 % 0.00 in
16:50 39.7 °F 37.3 °F 29.25 in Calm     91 % 0.00 in
16:55 39.7 °F 37.3 °F 29.25 in Calm     91 % 0.00 in
17:00 39.6 °F 37.2 °F 29.25 in Calm   1.2 mph 91 % 0.00 in
17:05 39.4 °F 37.0 °F 29.25 in NE 0.6 mph 2.3 mph 91 % 0.00 in
17:10 39.2 °F 36.5 °F 29.25 in NE 0.1 mph 1.2 mph 90 % 0.00 in
17:15 39.0 °F 36.3 °F 29.25 in Calm     90 % 0.00 in
17:20 38.8 °F 36.1 °F 29.26 in Calm   1.0 mph 90 % 0.00 in
17:25 38.8 °F 36.1 °F 29.26 in NNW 0.6 mph 1.2 mph 90 % 0.00 in
17:31 38.6 °F 36.2 °F 29.27 in West 0.5 mph 1.2 mph 91 % 0.00 in
17:36 38.6 °F 36.2 °F 29.27 in NW 2.5 mph 3.5 mph 91 % 0.00 in
17:41 38.6 °F 36.2 °F 29.27 in WNW 6.2 mph 11.5 mph 91 % 0.00 in
17:46 38.7 °F 36.3 °F 29.27 in WNW 3.0 mph 12.0 mph 91 % 0.00 in
17:51 38.9 °F 36.5 °F 29.28 in WNW 8.0 mph 13.8 mph 91 % 0.00 in
17:56 39.1 °F 36.7 °F 29.29 in NW 7.7 mph 11.5 mph 91 % 0.00 in
18:01 39.1 °F 36.7 °F 29.29 in NNW 9.3 mph 17.3 mph 91 % 0.00 in
18:06 38.9 °F 36.5 °F 29.29 in WNW 6.5 mph 12.7 mph 91 % 0.00 in
18:11 38.8 °F 36.4 °F 29.29 in WNW 4.3 mph 11.5 mph 91 % 0.00 in
18:16 38.7 °F 36.3 °F 29.29 in West 2.5 mph 8.1 mph 91 % 0.00 in
18:21 38.5 °F 36.1 °F 29.29 in West 4.2 mph 10.4 mph 91 % 0.00 in
18:26 38.4 °F 36.0 °F 29.30 in WNW 2.9 mph 11.5 mph 91 % 0.00 in
18:31 38.2 °F 36.1 °F 29.30 in West 8.2 mph 12.7 mph 92 % 0.00 in
18:36 38.1 °F 36.0 °F 29.30 in West 5.6 mph 11.5 mph 92 % 0.00 in
18:42 38.1 °F 36.0 °F 29.30 in WNW 5.6 mph 9.2 mph 92 % 0.00 in
18:47 38.1 °F 36.0 °F 29.31 in West 4.7 mph 12.7 mph 92 % 0.00 in
18:52 38.0 °F 35.9 °F 29.31 in WSW 5.4 mph 10.0 mph 92 % 0.00 in
18:57 38.0 °F 35.9 °F 29.31 in West 4.0 mph 6.9 mph 92 % 0.00 in
19:02 38.0 °F 35.6 °F 29.31 in West 5.4 mph 9.0 mph 91 % 0.00 in
19:07 38.0 °F 35.6 °F 29.31 in NW 10.3 mph 17.3 mph 91 % 0.00 in
19:12 38.0 °F 35.6 °F 29.32 in NNW 8.0 mph 14.0 mph 91 % 0.00 in
19:17 38.0 °F 35.6 °F 29.33 in NNW 7.3 mph 11.0 mph 91 % 0.00 in
19:22 38.0 °F 35.3 °F 29.33 in North 8.0 mph 10.4 mph 90 % 0.00 in
19:27 37.9 °F 35.2 °F 29.33 in NW 3.1 mph 5.8 mph 90 % 0.00 in
19:32 37.9 °F 35.2 °F 29.33 in NNW 5.0 mph 8.1 mph 90 % 0.00 in
19:37 37.8 °F 35.1 °F 29.34 in West 5.6 mph 10.0 mph 90 % 0.00 in
19:42 37.7 °F 35.0 °F 29.34 in NW 7.1 mph 12.7 mph 90 % 0.00 in
19:47 37.7 °F 34.8 °F 29.34 in North 5.3 mph 9.2 mph 89 % 0.00 in
19:52 37.6 °F 34.7 °F 29.34 in NNW 5.5 mph 8.1 mph 89 % 0.00 in
19:58 37.5 °F 34.6 °F 29.34 in NNW 4.5 mph 9.2 mph 89 % 0.00 in
20:03 37.4 °F 34.5 °F 29.34 in NNE 5.4 mph 8.1 mph 89 % 0.00 in
20:08 37.4 °F 34.5 °F 29.34 in NW 2.9 mph 6.0 mph 89 % 0.00 in
20:13 37.3 °F 34.4 °F 29.34 in WNW 4.2 mph 7.0 mph 89 % 0.00 in
20:18 37.2 °F 34.3 °F 29.35 in WNW 7.4 mph 12.7 mph 89 % 0.00 in
20:23 37.1 °F 34.4 °F 29.35 in NW 4.0 mph 5.8 mph 90 % 0.00 in
20:28 37.1 °F 34.4 °F 29.35 in NNW 5.7 mph 9.2 mph 90 % 0.00 in
20:33 37.0 °F 34.3 °F 29.35 in WNW 6.1 mph 9.2 mph 90 % 0.00 in
20:38 36.9 °F 34.2 °F 29.35 in West 5.7 mph 10.4 mph 90 % 0.00 in
20:43 36.9 °F 34.0 °F 29.35 in WNW 3.0 mph 12.0 mph 89 % 0.00 in
20:48 36.8 °F 33.9 °F 29.35 in WNW 5.0 mph 10.0 mph 89 % 0.00 in
20:53 36.8 °F 33.9 °F 29.36 in WNW 3.0 mph 8.0 mph 89 % 0.00 in
20:58 36.7 °F 33.8 °F 29.35 in West 4.9 mph 10.4 mph 89 % 0.00 in
21:03 36.6 °F 33.7 °F 29.36 in WSW 6.1 mph 11.5 mph 89 % 0.00 in
21:08 36.5 °F 33.6 °F 29.36 in WNW 4.9 mph 9.2 mph 89 % 0.00 in
21:13 36.5 °F 33.8 °F 29.36 in WSW 3.6 mph 6.9 mph 90 % 0.00 in
21:18 36.5 °F 33.8 °F 29.36 in West 6.7 mph 12.7 mph 90 % 0.00 in
21:24 36.4 °F 33.5 °F 29.36 in WNW 4.8 mph 8.1 mph 89 % 0.00 in
21:29 36.3 °F 33.1 °F 29.36 in West 10.8 mph 12.7 mph 88 % 0.00 in
21:34 36.3 °F 32.5 °F 29.36 in WNW 4.4 mph 11.5 mph 86 % 0.00 in
21:39 36.3 °F 31.6 °F 29.36 in WNW 4.9 mph 12.0 mph 83 % 0.00 in
21:44 36.3 °F 31.0 °F 29.36 in WNW 6.1 mph 12.0 mph 81 % 0.00 in
21:49 36.4 °F 30.5 °F 29.37 in NW 6.1 mph 11.0 mph 79 % 0.00 in
21:54 36.4 °F 30.2 °F 29.37 in NW 6.4 mph 11.0 mph 78 % 0.00 in
21:59 36.5 °F 30.0 °F 29.37 in WNW 4.9 mph 12.7 mph 77 % 0.00 in
22:04 36.5 °F 29.7 °F 29.37 in WNW 7.5 mph 13.8 mph 76 % 0.00 in
22:09 36.5 °F 29.7 °F 29.37 in WSW 4.7 mph 11.5 mph 76 % 0.00 in
22:14 36.5 °F 29.3 °F 29.37 in WNW 6.6 mph 15.0 mph 75 % 0.00 in
22:19 36.5 °F 29.3 °F 29.37 in West 6.8 mph 15.0 mph 75 % 0.00 in
22:24 36.5 °F 29.0 °F 29.37 in NW 9.0 mph 17.3 mph 74 % 0.00 in
22:29 36.6 °F 29.1 °F 29.37 in NW 9.7 mph 12.7 mph 74 % 0.00 in
22:34 36.6 °F 29.1 °F 29.37 in NW 7.4 mph 15.0 mph 74 % 0.00 in
22:39 36.6 °F 28.8 °F 29.37 in West 3.6 mph 12.7 mph 73 % 0.00 in
22:44 36.6 °F 28.8 °F 29.37 in West 3.7 mph 11.5 mph 73 % 0.00 in
22:50 36.5 °F 28.7 °F 29.37 in West 9.9 mph 18.4 mph 73 % 0.00 in
22:55 36.5 °F 28.7 °F 29.37 in WSW 6.7 mph 18.4 mph 73 % 0.00 in
23:00 36.5 °F 29.3 °F 29.37 in WSW 5.3 mph 9.2 mph 75 % 0.00 in
23:05 36.4 °F 29.6 °F 29.37 in West 3.3 mph 7.0 mph 76 % 0.00 in
23:10 36.2 °F 29.4 °F 29.37 in WSW 5.9 mph 12.0 mph 76 % 0.00 in
23:15 36.2 °F 29.7 °F 29.38 in WNW 7.9 mph 10.4 mph 77 % 0.00 in
23:20 36.0 °F 29.5 °F 29.38 in WNW 5.8 mph 9.2 mph 77 % 0.00 in
23:25 36.0 °F 29.5 °F 29.38 in WNW 3.5 mph 8.1 mph 77 % 0.00 in
23:30 35.9 °F 29.4 °F 29.38 in West 7.3 mph 11.5 mph 77 % 0.00 in
23:35 35.9 °F 29.4 °F 29.38 in West 4.6 mph 9.0 mph 77 % 0.00 in
23:40 35.8 °F 29.0 °F 29.39 in West 3.0 mph 8.1 mph 76 % 0.00 in
23:45 35.8 °F 29.3 °F 29.38 in West 5.6 mph 11.5 mph 77 % 0.00 in
23:50 35.7 °F 28.9 °F 29.38 in WSW 8.8 mph 11.5 mph 76 % 0.00 in
23:55 35.8 °F 29.0 °F 29.38 in West 6.1 mph 10.4 mph 76 % 0.00 in
Crab Meadow Weather
Compliments of Weather Underground - 3 mb

Script developed by  Jim McMurry - jmcmurry@mwt.net Adapted for the template by  Wim van der Kuil - Leuven-Template.eu

Recycling: A used aluminum can is recycled and back on the grocery shelf as a new can, in as little as 60 days.